createdAt,value
2023-03-29T00:00:36.858Z,63.78
2023-03-29T00:01:42.001Z,63.64
2023-03-29T00:02:48.825Z,63.91
2023-03-29T00:03:52.009Z,64.21
2023-03-29T00:04:54.474Z,64.68
2023-03-29T00:06:05.610Z,64.71
2023-03-29T00:07:07.832Z,64.81
2023-03-29T00:08:14.671Z,65.04
2023-03-29T00:09:18.316Z,64.82
2023-03-29T00:10:23.959Z,65.27
2023-03-29T00:11:27.387Z,65.08
2023-03-29T00:12:29.555Z,65.32
2023-03-29T00:13:31.921Z,65.53
2023-03-29T00:14:34.241Z,65.43
2023-03-29T00:15:36.450Z,65.53
2023-03-29T00:16:38.749Z,65.23
2023-03-29T00:17:41.517Z,65.77
2023-03-29T00:18:44.703Z,65.86
2023-03-29T00:19:50.006Z,65.47
2023-03-29T00:20:59.835Z,65.54
2023-03-29T00:22:05.865Z,65.90
2023-03-29T00:23:08.470Z,66.04
2023-03-29T00:24:10.780Z,66.18
2023-03-29T00:25:13.882Z,66.53
2023-03-29T00:26:16.698Z,66.19
2023-03-29T00:27:18.871Z,65.79
2023-03-29T00:28:21.450Z,66.00
2023-03-29T00:29:23.684Z,65.45
2023-03-29T00:30:26.172Z,65.49
2023-03-29T00:31:28.642Z,65.33
2023-03-29T00:32:32.282Z,65.34
2023-03-29T00:33:34.979Z,65.64
2023-03-29T00:34:37.254Z,65.69
2023-03-29T00:35:39.760Z,65.99
2023-03-29T00:36:43.176Z,66.07
2023-03-29T00:37:47.227Z,66.62
2023-03-29T00:38:49.651Z,66.54
2023-03-29T00:39:52.572Z,66.73
2023-03-29T00:40:54.955Z,66.84
2023-03-29T00:41:57.114Z,66.80
2023-03-29T00:43:00.538Z,67.33
2023-03-29T00:44:04.676Z,67.32
2023-03-29T00:45:09.670Z,67.22
2023-03-29T00:46:12.084Z,67.63
2023-03-29T00:47:14.525Z,67.33
2023-03-29T00:48:24.567Z,67.48
2023-03-29T00:49:27.478Z,67.71
2023-03-29T00:50:36.241Z,67.61
2023-03-29T00:51:41.426Z,67.50
2023-03-29T00:52:48.674Z,67.26
2023-03-29T00:53:56.302Z,67.58
2023-03-29T00:55:01.551Z,67.76
2023-03-29T00:56:14.006Z,67.65
2023-03-29T00:57:19.206Z,68.03
2023-03-29T00:58:40.613Z,68.11
2023-03-29T00:59:44.859Z,68.21
2023-03-29T01:01:02.220Z,68.13
2023-03-29T01:02:07.224Z,68.31
2023-03-29T01:03:13.756Z,68.21
2023-03-29T01:04:24.264Z,68.32
2023-03-29T01:05:31.577Z,68.21
2023-03-29T01:06:39.263Z,68.25
2023-03-29T01:07:57.894Z,68.31
2023-03-29T01:09:03.338Z,67.75
2023-03-29T01:10:31.688Z,68.23
2023-03-29T01:11:51.378Z,68.45
2023-03-29T01:13:00.454Z,68.58
2023-03-29T01:14:12.526Z,68.67
2023-03-29T01:15:19.938Z,68.78
2023-03-29T01:16:25.733Z,68.63
2023-03-29T01:17:31.622Z,68.70
2023-03-29T01:18:34.035Z,68.21
2023-03-29T01:19:44.258Z,68.47
2023-03-29T01:20:56.320Z,67.85
2023-03-29T01:22:32.152Z,68.04
2023-03-29T01:23:51.051Z,67.90
2023-03-29T01:25:00.989Z,68.13
2023-03-29T01:26:17.387Z,67.89
2023-03-29T01:27:47.433Z,67.94
2023-03-29T01:28:57.584Z,68.20
2023-03-29T01:30:05.675Z,67.99
2023-03-29T01:31:17.452Z,67.80
2023-03-29T01:32:27.978Z,68.21
2023-03-29T01:33:49.324Z,68.16
2023-03-29T01:35:00.143Z,68.13
2023-03-29T01:36:27.114Z,68.43
2023-03-29T01:37:37.567Z,68.44
2023-03-29T01:38:50.688Z,68.93
2023-03-29T01:39:53.603Z,68.42
2023-03-29T01:40:55.961Z,68.23
2023-03-29T01:42:16.786Z,68.63
2023-03-29T01:43:51.398Z,68.58
2023-03-29T01:45:15.474Z,68.63
2023-03-29T01:46:36.336Z,68.59
2023-03-29T01:47:46.432Z,68.73
2023-03-29T01:48:59.545Z,68.76
2023-03-29T01:50:13.460Z,68.74
2023-03-29T01:51:32.163Z,69.15
2023-03-29T01:52:49.494Z,69.28
2023-03-29T01:54:03.134Z,69.35
2023-03-29T01:55:20.666Z,69.25
2023-03-29T01:56:28.174Z,68.55
2023-03-29T01:57:33.559Z,69.03
2023-03-29T01:58:40.927Z,69.05
2023-03-29T01:59:47.270Z,69.13
2023-03-29T02:00:54.136Z,69.33
2023-03-29T02:02:00.535Z,69.36
2023-03-29T02:03:09.005Z,69.35
2023-03-29T02:04:14.197Z,68.94
2023-03-29T02:05:17.920Z,69.24
2023-03-29T02:06:23.854Z,68.81
2023-03-29T02:07:30.679Z,68.72
2023-03-29T02:08:33.033Z,68.77
2023-03-29T02:09:37.756Z,68.52
2023-03-29T02:10:40.776Z,68.41
2023-03-29T02:11:44.873Z,68.71
2023-03-29T02:12:47.768Z,68.89
2023-03-29T02:13:49.934Z,69.33
2023-03-29T02:14:52.161Z,69.55
2023-03-29T02:15:54.886Z,69.64
2023-03-29T02:16:57.124Z,69.24
2023-03-29T02:17:59.650Z,69.12
2023-03-29T02:19:02.822Z,69.40
2023-03-29T02:20:14.722Z,69.05
2023-03-29T02:21:40.553Z,69.24
2023-03-29T02:23:05.863Z,69.14
2023-03-29T02:24:13.367Z,68.84
2023-03-29T02:25:17.556Z,68.77
2023-03-29T02:26:20.727Z,69.03
2023-03-29T02:27:22.988Z,68.94
2023-03-29T02:28:27.023Z,69.32
2023-03-29T02:29:29.642Z,68.94
2023-03-29T02:31:03.602Z,69.23
2023-03-29T02:32:16.750Z,69.05
2023-03-29T02:33:31.202Z,68.64
2023-03-29T02:35:00.124Z,68.70
2023-03-29T02:36:08.547Z,68.44
2023-03-29T02:37:15.698Z,68.40
2023-03-29T02:38:18.791Z,68.66
2023-03-29T02:39:22.881Z,68.68
2023-03-29T02:40:27.279Z,68.54
2023-03-29T02:41:29.937Z,68.39
2023-03-29T02:42:32.171Z,68.78
2023-03-29T02:43:36.645Z,68.59
2023-03-29T02:44:41.992Z,68.69
2023-03-29T02:45:45.982Z,69.01
2023-03-29T02:46:52.531Z,69.30
2023-03-29T02:48:03.428Z,69.81
2023-03-29T02:49:05.794Z,69.83
2023-03-29T02:50:08.694Z,69.64
2023-03-29T02:51:24.625Z,69.71
2023-03-29T02:52:34.215Z,69.45
2023-03-29T02:53:45.864Z,69.82
2023-03-29T02:54:51.307Z,69.64
2023-03-29T02:55:53.870Z,69.70
2023-03-29T02:57:03.760Z,69.67
2023-03-29T02:58:08.827Z,69.82
2023-03-29T02:59:12.832Z,69.94
2023-03-29T03:00:19.699Z,69.94
2023-03-29T03:01:23.212Z,70.20
2023-03-29T03:02:26.219Z,70.07
2023-03-29T03:03:29.841Z,69.82
2023-03-29T03:04:35.725Z,69.69
2023-03-29T03:05:38.827Z,69.64
2023-03-29T03:06:42.168Z,69.40
2023-03-29T03:07:46.185Z,69.21
2023-03-29T03:08:49.200Z,69.42
2023-03-29T03:09:51.921Z,69.24
2023-03-29T03:10:54.335Z,69.16
2023-03-29T03:11:56.987Z,68.86
2023-03-29T03:13:01.096Z,68.91
2023-03-29T03:14:06.806Z,68.63
2023-03-29T03:15:10.561Z,68.88
2023-03-29T03:16:15.421Z,68.98
2023-03-29T03:17:19.021Z,69.23
2023-03-29T03:18:23.393Z,69.38
2023-03-29T03:19:25.931Z,69.57
2023-03-29T03:20:28.315Z,69.50
2023-03-29T03:21:31.183Z,69.34
2023-03-29T03:22:35.079Z,69.11
2023-03-29T03:23:37.365Z,68.79
2023-03-29T03:24:41.486Z,68.74
2023-03-29T03:25:44.983Z,68.51
2023-03-29T03:26:47.628Z,68.67
2023-03-29T03:27:50.888Z,68.79
2023-03-29T03:28:56.802Z,69.20
2023-03-29T03:30:31.637Z,68.98
2023-03-29T03:31:57.156Z,68.90
2023-03-29T03:33:30.353Z,68.93
2023-03-29T03:35:02.685Z,68.98
2023-03-29T03:36:06.498Z,68.85
2023-03-29T03:37:12.329Z,69.60
2023-03-29T03:38:15.299Z,69.79
2023-03-29T03:39:19.308Z,69.83
2023-03-29T03:40:22.097Z,69.70
2023-03-29T03:41:26.140Z,69.43
2023-03-29T03:42:29.834Z,69.78
2023-03-29T03:43:33.930Z,69.50
2023-03-29T03:44:36.545Z,69.58
2023-03-29T03:45:59.285Z,69.66
2023-03-29T03:47:01.701Z,69.72
2023-03-29T03:48:04.267Z,69.56
2023-03-29T03:49:22.427Z,69.75
2023-03-29T03:50:24.798Z,69.36
2023-03-29T03:51:27.234Z,69.44
2023-03-29T03:52:30.043Z,69.57
2023-03-29T03:53:32.249Z,69.27
2023-03-29T03:54:50.297Z,69.31
2023-03-29T03:56:13.961Z,69.45
2023-03-29T03:57:40.041Z,69.21
2023-03-29T03:58:47.620Z,69.27
2023-03-29T03:59:53.125Z,69.21
2023-03-29T04:01:02.292Z,69.54
2023-03-29T04:02:15.917Z,69.55
2023-03-29T04:03:19.917Z,69.34
2023-03-29T04:04:23.613Z,69.38
2023-03-29T04:05:47.103Z,69.47
2023-03-29T04:06:50.898Z,69.70
2023-03-29T04:08:09.323Z,69.64
2023-03-29T04:09:33.413Z,69.46
2023-03-29T04:10:59.946Z,69.64
2023-03-29T04:12:10.715Z,69.48
2023-03-29T04:13:14.859Z,69.45
2023-03-29T04:14:40.418Z,69.09
2023-03-29T04:15:49.756Z,69.32
2023-03-29T04:16:53.314Z,69.39
2023-03-29T04:18:18.373Z,69.89
2023-03-29T04:19:27.039Z,69.72
2023-03-29T04:20:29.774Z,69.57
2023-03-29T04:21:34.448Z,69.39
2023-03-29T04:22:36.897Z,69.66
2023-03-29T04:23:39.201Z,69.51
2023-03-29T04:24:41.589Z,69.52
2023-03-29T04:26:06.511Z,69.62
2023-03-29T04:27:21.012Z,69.53
2023-03-29T04:28:23.579Z,69.04
2023-03-29T04:29:44.971Z,69.10
2023-03-29T04:31:01.680Z,68.71
2023-03-29T04:32:13.304Z,68.67
2023-03-29T04:33:38.713Z,68.73
2023-03-29T04:34:40.955Z,68.14
2023-03-29T04:35:43.492Z,68.08
2023-03-29T04:36:52.326Z,68.06
2023-03-29T04:37:58.395Z,68.52
2023-03-29T04:39:01.844Z,68.73
2023-03-29T04:40:08.703Z,68.78
2023-03-29T04:41:23.772Z,68.72
2023-03-29T04:42:39.463Z,68.76
2023-03-29T04:43:46.803Z,68.44
2023-03-29T04:44:57.502Z,68.37
2023-03-29T04:46:15.628Z,68.38
2023-03-29T04:47:32.800Z,68.79
2023-03-29T04:48:45.529Z,68.66
2023-03-29T04:49:48.617Z,68.42
2023-03-29T04:50:59.846Z,68.79
2023-03-29T04:52:02.228Z,68.58
2023-03-29T04:53:07.412Z,68.31
2023-03-29T04:54:10.502Z,68.12
2023-03-29T04:55:30.945Z,68.25
2023-03-29T04:56:37.988Z,67.81
2023-03-29T04:58:07.898Z,67.41
2023-03-29T04:59:12.715Z,67.50
2023-03-29T05:00:15.749Z,67.38
2023-03-29T05:01:33.613Z,66.87
2023-03-29T05:02:36.730Z,66.73
2023-03-29T05:03:39.505Z,66.71
2023-03-29T05:04:53.892Z,66.55
2023-03-29T05:06:01.835Z,66.55
2023-03-29T05:07:04.504Z,66.39
2023-03-29T05:08:07.390Z,66.31
2023-03-29T05:09:19.979Z,66.08
2023-03-29T05:10:26.620Z,65.98
2023-03-29T05:11:29.343Z,65.97
2023-03-29T05:12:31.601Z,65.87
2023-03-29T05:13:34.469Z,66.00
2023-03-29T05:14:37.020Z,65.61
2023-03-29T05:15:41.229Z,65.40
2023-03-29T05:16:44.171Z,65.49
2023-03-29T05:17:47.726Z,65.52
2023-03-29T05:18:51.744Z,65.25
2023-03-29T05:19:54.908Z,65.13
2023-03-29T05:21:00.421Z,65.23
2023-03-29T05:22:03.870Z,65.29
2023-03-29T05:23:07.957Z,65.01
2023-03-29T05:24:44.975Z,65.27
2023-03-29T05:25:53.587Z,65.48
2023-03-29T05:26:56.443Z,65.33
2023-03-29T05:27:59.971Z,65.34
2023-03-29T05:29:02.680Z,65.30
2023-03-29T05:30:05.482Z,64.98
2023-03-29T05:31:17.278Z,64.80
2023-03-29T05:32:22.242Z,64.92
2023-03-29T05:33:24.498Z,64.67
2023-03-29T05:34:27.276Z,64.52
2023-03-29T05:35:33.709Z,64.30
2023-03-29T05:36:39.113Z,64.21
2023-03-29T05:37:42.290Z,64.00
2023-03-29T05:38:46.617Z,64.22
2023-03-29T05:39:49.687Z,64.30
2023-03-29T05:40:56.548Z,64.47
2023-03-29T05:42:07.593Z,64.41
2023-03-29T05:43:22.531Z,64.01
2023-03-29T05:44:24.885Z,65.50
2023-03-29T05:45:34.191Z,63.97
2023-03-29T05:46:37.537Z,63.82
2023-03-29T05:47:39.867Z,63.78
2023-03-29T05:48:42.617Z,63.71
2023-03-29T05:49:46.243Z,63.58
2023-03-29T05:50:54.048Z,63.34
2023-03-29T05:51:57.152Z,63.41
2023-03-29T05:53:00.748Z,63.48
2023-03-29T05:54:03.363Z,63.20
2023-03-29T05:55:06.004Z,63.20
2023-03-29T05:56:09.076Z,63.16
2023-03-29T05:57:12.190Z,63.08
2023-03-29T05:58:17.995Z,63.26
2023-03-29T05:59:21.376Z,63.61
2023-03-29T06:00:24.349Z,63.43
2023-03-29T06:01:33.730Z,63.82
2023-03-29T06:02:41.892Z,63.36
2023-03-29T06:03:46.333Z,63.50
2023-03-29T06:04:49.291Z,63.11
2023-03-29T06:06:00.477Z,63.02
2023-03-29T06:07:05.007Z,63.02
2023-03-29T06:08:08.909Z,62.86
2023-03-29T06:09:11.253Z,62.50
2023-03-29T06:10:27.464Z,62.29
2023-03-29T06:11:41.108Z,62.14
2023-03-29T06:12:49.740Z,62.08
2023-03-29T06:13:53.643Z,62.18
2023-03-29T06:14:58.219Z,62.31
2023-03-29T06:16:18.740Z,62.08
2023-03-29T06:17:21.392Z,61.89
2023-03-29T06:18:24.623Z,61.52
2023-03-29T06:19:26.849Z,61.49
2023-03-29T06:20:30.223Z,61.42
2023-03-29T06:21:38.331Z,61.04
2023-03-29T06:22:42.588Z,60.38
2023-03-29T06:23:47.417Z,60.26
2023-03-29T06:24:51.361Z,60.31
2023-03-29T06:26:00.248Z,59.85
2023-03-29T06:27:02.800Z,59.66
2023-03-29T06:28:06.304Z,59.54
2023-03-29T06:29:10.334Z,59.19
2023-03-29T06:30:16.478Z,58.87
2023-03-29T06:31:23.296Z,58.67
2023-03-29T06:32:28.446Z,58.69
2023-03-29T06:33:43.190Z,58.44
2023-03-29T06:35:06.257Z,58.22
2023-03-29T06:36:13.975Z,57.98
2023-03-29T06:37:16.572Z,58.10
2023-03-29T06:38:20.832Z,57.89
2023-03-29T06:39:43.685Z,57.54
2023-03-29T06:41:07.242Z,57.52
2023-03-29T06:42:30.012Z,57.18
2023-03-29T06:43:55.373Z,56.76
2023-03-29T06:45:00.383Z,56.39
2023-03-29T06:46:02.689Z,55.73
2023-03-29T06:47:19.424Z,55.81
2023-03-29T06:48:22.037Z,55.73
2023-03-29T06:49:24.203Z,55.54
2023-03-29T06:50:44.010Z,55.32
2023-03-29T06:51:49.225Z,55.65
2023-03-29T06:52:52.789Z,54.87
2023-03-29T06:53:55.295Z,55.01
2023-03-29T06:54:57.997Z,54.40
2023-03-29T06:56:05.318Z,54.64
2023-03-29T06:57:18.680Z,53.92
2023-03-29T06:58:22.043Z,54.08
2023-03-29T06:59:24.421Z,54.43
2023-03-29T07:00:47.509Z,53.53
2023-03-29T07:01:57.815Z,53.66
2023-03-29T07:03:20.073Z,53.05
2023-03-29T07:04:25.397Z,53.72
2023-03-29T07:06:01.129Z,53.03
2023-03-29T07:07:05.929Z,53.45
2023-03-29T07:08:10.021Z,52.67
2023-03-29T07:09:22.192Z,52.51
2023-03-29T07:10:47.600Z,52.16
2023-03-29T07:12:14.951Z,52.09
2023-03-29T07:13:17.366Z,52.63
2023-03-29T07:14:20.035Z,52.82
2023-03-29T07:15:22.530Z,52.20
2023-03-29T07:16:43.347Z,52.00
2023-03-29T07:18:04.773Z,51.70
2023-03-29T07:19:09.247Z,51.32
2023-03-29T07:20:27.112Z,51.48
2023-03-29T07:21:40.534Z,51.17
2023-03-29T07:22:44.072Z,50.58
2023-03-29T07:23:46.347Z,50.52
2023-03-29T07:24:49.334Z,50.23
2023-03-29T07:25:51.577Z,49.78
2023-03-29T07:27:03.218Z,49.54
2023-03-29T07:28:07.901Z,49.27
2023-03-29T07:29:11.777Z,48.92
2023-03-29T07:30:19.257Z,49.29
2023-03-29T07:31:21.819Z,49.06
2023-03-29T07:32:31.663Z,48.53
2023-03-29T07:33:56.861Z,48.57
2023-03-29T07:35:01.569Z,48.00
2023-03-29T07:36:11.219Z,47.78
2023-03-29T07:37:13.597Z,47.73
2023-03-29T07:38:18.564Z,47.41
2023-03-29T07:39:31.027Z,47.48
2023-03-29T07:40:56.448Z,46.85
2023-03-29T07:42:17.205Z,46.49
2023-03-29T07:43:20.964Z,45.91
2023-03-29T07:44:23.688Z,45.84
2023-03-29T07:45:29.103Z,45.86
2023-03-29T07:46:39.189Z,45.72
2023-03-29T07:47:42.068Z,45.98
2023-03-29T07:48:44.391Z,45.69
2023-03-29T07:49:49.269Z,45.67
2023-03-29T07:50:52.033Z,46.05
2023-03-29T07:51:58.944Z,45.47
2023-03-29T07:53:02.153Z,45.45
2023-03-29T07:54:06.454Z,45.13
2023-03-29T07:55:10.452Z,45.19
2023-03-29T07:56:30.737Z,44.87
2023-03-29T07:57:45.754Z,44.56
2023-03-29T07:58:48.161Z,44.94
2023-03-29T07:59:52.988Z,45.11
2023-03-29T08:01:03.683Z,44.96
2023-03-29T08:02:25.108Z,44.55
2023-03-29T08:03:31.159Z,44.24
2023-03-29T08:04:33.590Z,44.69
2023-03-29T08:05:51.649Z,44.38
2023-03-29T08:06:54.232Z,44.22
2023-03-29T08:07:59.748Z,44.36
2023-03-29T08:09:18.627Z,44.54
2023-03-29T08:10:22.410Z,44.99
2023-03-29T08:11:40.154Z,44.39
2023-03-29T08:12:50.860Z,43.87
2023-03-29T08:13:55.616Z,44.37
2023-03-29T08:15:38.468Z,44.13
2023-03-29T08:16:44.641Z,44.12
2023-03-29T08:17:50.601Z,43.99
2023-03-29T08:18:53.668Z,44.07
2023-03-29T08:19:58.142Z,43.78
2023-03-29T08:21:00.591Z,43.78
2023-03-29T08:22:04.045Z,44.20
2023-03-29T08:23:26.210Z,44.42
2023-03-29T08:24:55.322Z,44.45
2023-03-29T08:26:00.756Z,44.17
2023-03-29T08:27:03.335Z,44.54
2023-03-29T08:28:05.578Z,44.51
2023-03-29T08:29:27.532Z,44.03
2023-03-29T08:30:30.485Z,44.00
2023-03-29T08:31:33.647Z,43.54
2023-03-29T08:32:37.822Z,43.38
2023-03-29T08:33:42.863Z,42.62
2023-03-29T08:35:05.092Z,42.32
2023-03-29T08:36:13.416Z,42.57
2023-03-29T08:37:16.579Z,42.23
2023-03-29T08:38:22.628Z,42.41
2023-03-29T08:39:25.955Z,42.27
2023-03-29T08:40:48.849Z,42.07
2023-03-29T08:42:45.021Z,41.74
2023-03-29T08:44:32.824Z,41.56
2023-03-29T08:45:53.820Z,41.92
2023-03-29T08:47:18.204Z,41.68
2023-03-29T08:48:28.665Z,42.07
2023-03-29T08:49:31.807Z,41.99
2023-03-29T08:50:40.872Z,42.02
2023-03-29T08:51:47.893Z,41.99
2023-03-29T08:53:02.228Z,42.61
2023-03-29T08:54:41.599Z,42.43
2023-03-29T08:55:48.715Z,42.26
2023-03-29T08:57:45.716Z,41.99
2023-03-29T08:58:55.253Z,41.63
2023-03-29T09:00:04.540Z,41.88
2023-03-29T09:01:09.470Z,41.84
2023-03-29T09:02:27.766Z,41.79
2023-03-29T09:03:48.982Z,41.97
2023-03-29T09:05:09.130Z,41.63
2023-03-29T09:06:22.019Z,41.82
2023-03-29T09:07:27.354Z,41.75
2023-03-29T09:08:31.112Z,41.82
2023-03-29T09:09:34.624Z,41.55
2023-03-29T09:11:05.054Z,41.46
2023-03-29T09:12:24.655Z,41.63
2023-03-29T09:13:39.077Z,41.61
2023-03-29T09:15:09.693Z,42.12
2023-03-29T09:16:55.412Z,42.08
2023-03-29T09:18:16.148Z,42.37
2023-03-29T09:19:30.382Z,42.54
2023-03-29T09:21:06.159Z,42.60
2023-03-29T09:22:42.069Z,42.52
2023-03-29T09:23:54.680Z,42.51
2023-03-29T09:25:25.251Z,42.10
2023-03-29T09:26:37.060Z,42.12
2023-03-29T09:28:18.702Z,42.38
2023-03-29T09:29:44.990Z,42.36
2023-03-29T09:31:11.506Z,42.17
2023-03-29T09:32:20.530Z,42.29
2023-03-29T09:33:34.682Z,42.53
2023-03-29T09:35:09.589Z,42.32
2023-03-29T09:36:27.199Z,42.61
2023-03-29T09:37:38.364Z,42.35
2023-03-29T09:38:43.693Z,42.32
2023-03-29T09:39:46.510Z,42.56
2023-03-29T09:41:00.752Z,43.07
2023-03-29T09:42:09.326Z,43.48
2023-03-29T09:43:18.411Z,43.89
2023-03-29T09:44:30.720Z,44.16
2023-03-29T09:45:41.992Z,44.51
2023-03-29T09:46:52.111Z,44.47
2023-03-29T09:48:11.415Z,44.46
2023-03-29T09:49:23.538Z,44.46
2023-03-29T09:50:34.059Z,44.79
2023-03-29T09:51:42.099Z,44.43
2023-03-29T09:52:46.300Z,44.50
2023-03-29T09:53:57.409Z,44.16
2023-03-29T09:55:29.466Z,44.58
2023-03-29T09:56:40.809Z,44.51
2023-03-29T09:57:46.589Z,45.03
2023-03-29T09:58:50.373Z,44.87
2023-03-29T09:59:54.630Z,45.04
2023-03-29T10:01:03.156Z,45.22
2023-03-29T10:02:11.960Z,45.09
2023-03-29T10:03:22.377Z,44.97
2023-03-29T10:04:35.462Z,45.54
2023-03-29T10:05:38.059Z,46.24
2023-03-29T10:06:50.525Z,46.85
2023-03-29T10:07:59.907Z,47.10
2023-03-29T10:09:04.381Z,47.45
2023-03-29T10:10:30.864Z,47.60
2023-03-29T10:11:38.397Z,46.97
2023-03-29T10:12:41.684Z,47.19
2023-03-29T10:13:49.194Z,46.85
2023-03-29T10:14:54.251Z,46.90
2023-03-29T10:16:01.801Z,46.99
2023-03-29T10:17:11.649Z,46.95
2023-03-29T10:18:14.515Z,47.07
2023-03-29T10:19:23.467Z,47.21
2023-03-29T10:20:25.957Z,46.82
2023-03-29T10:21:29.352Z,46.44
2023-03-29T10:22:37.831Z,46.24
2023-03-29T10:23:40.248Z,45.93
2023-03-29T10:24:52.089Z,45.92
2023-03-29T10:25:54.294Z,46.28
2023-03-29T10:27:02.831Z,46.52
2023-03-29T10:28:10.186Z,46.37
2023-03-29T10:29:13.471Z,46.13
2023-03-29T10:30:22.639Z,46.16
2023-03-29T10:31:25.780Z,46.51
2023-03-29T10:32:34.764Z,47.09
2023-03-29T10:33:37.383Z,46.97
2023-03-29T10:34:39.607Z,47.01
2023-03-29T10:35:42.823Z,46.79
2023-03-29T10:36:53.685Z,47.17
2023-03-29T10:37:59.262Z,47.44
2023-03-29T10:39:06.183Z,47.41
2023-03-29T10:40:41.390Z,46.88
2023-03-29T10:41:44.769Z,47.08
2023-03-29T10:42:49.953Z,47.07
2023-03-29T10:43:52.360Z,46.78
2023-03-29T10:44:59.541Z,46.44
2023-03-29T10:46:19.511Z,46.74
2023-03-29T10:47:22.707Z,46.69
2023-03-29T10:48:30.135Z,46.83
2023-03-29T10:49:41.479Z,46.89
2023-03-29T10:50:50.475Z,47.28
2023-03-29T10:51:52.681Z,47.05
2023-03-29T10:52:55.137Z,47.69
2023-03-29T10:53:59.253Z,48.29
2023-03-29T10:55:01.588Z,48.16
2023-03-29T10:56:52.005Z,47.61
2023-03-29T10:58:16.721Z,47.54
2023-03-29T10:59:29.784Z,47.84
2023-03-29T11:00:40.797Z,48.16
2023-03-29T11:02:04.171Z,47.67
2023-03-29T11:03:40.259Z,47.40
2023-03-29T11:04:46.612Z,47.20
2023-03-29T11:06:04.178Z,47.30
2023-03-29T11:07:24.309Z,47.65
2023-03-29T11:08:48.017Z,48.13
2023-03-29T11:10:14.770Z,48.33
2023-03-29T11:11:45.379Z,48.25
2023-03-29T11:13:18.367Z,47.63
2023-03-29T11:14:49.683Z,47.53
2023-03-29T11:15:54.593Z,47.87
2023-03-29T11:17:27.945Z,47.32
2023-03-29T11:18:45.388Z,47.60
2023-03-29T11:20:19.996Z,47.93
2023-03-29T11:21:37.923Z,47.71
2023-03-29T11:23:12.959Z,47.28
2023-03-29T11:24:33.961Z,46.80
2023-03-29T11:26:11.799Z,47.14
2023-03-29T11:27:29.727Z,47.47
2023-03-29T11:28:40.630Z,47.56
2023-03-29T11:29:51.950Z,47.48
2023-03-29T11:30:54.140Z,47.69
2023-03-29T11:32:19.012Z,48.18
2023-03-29T11:33:33.770Z,48.30
2023-03-29T11:35:19.399Z,48.94
2023-03-29T11:36:39.115Z,49.57
2023-03-29T11:38:05.725Z,49.75
2023-03-29T11:39:20.252Z,49.49
2023-03-29T11:40:39.308Z,48.86
2023-03-29T11:41:44.912Z,48.25
2023-03-29T11:42:50.719Z,48.35
2023-03-29T11:44:02.372Z,47.66
2023-03-29T11:45:06.078Z,47.61
2023-03-29T11:46:17.773Z,47.61
2023-03-29T11:47:27.439Z,47.85
2023-03-29T11:48:36.102Z,48.25
2023-03-29T11:49:41.758Z,47.69
2023-03-29T11:51:04.279Z,47.32
2023-03-29T11:52:26.487Z,47.19
2023-03-29T11:53:42.101Z,47.37
2023-03-29T11:55:08.237Z,47.05
2023-03-29T11:56:16.270Z,47.50
2023-03-29T11:57:31.009Z,47.25
2023-03-29T11:58:38.999Z,46.76
2023-03-29T11:59:46.147Z,46.73
2023-03-29T12:00:55.345Z,46.54
2023-03-29T12:02:10.642Z,47.03
2023-03-29T12:03:22.593Z,47.89
2023-03-29T12:04:31.474Z,48.10
2023-03-29T12:05:45.972Z,48.06
2023-03-29T12:07:01.891Z,47.18
2023-03-29T12:08:09.641Z,47.54
2023-03-29T12:09:14.195Z,47.50
2023-03-29T12:10:31.300Z,47.71
2023-03-29T12:11:49.192Z,47.59
2023-03-29T12:13:03.430Z,47.99
2023-03-29T12:14:14.580Z,48.23
2023-03-29T12:15:21.566Z,48.09
2023-03-29T12:16:26.735Z,47.87
2023-03-29T12:17:45.006Z,47.84
2023-03-29T12:18:51.385Z,47.61
2023-03-29T12:20:04.523Z,47.72
2023-03-29T12:21:21.827Z,47.75
2023-03-29T12:22:25.588Z,48.03
2023-03-29T12:23:32.543Z,48.64
2023-03-29T12:24:38.842Z,48.42
2023-03-29T12:25:44.796Z,48.26
2023-03-29T12:26:52.923Z,48.34
2023-03-29T12:28:03.724Z,49.05
2023-03-29T12:29:20.827Z,48.65
2023-03-29T12:30:38.531Z,49.05
2023-03-29T12:31:52.526Z,49.13
2023-03-29T12:33:16.486Z,49.07
2023-03-29T12:35:05.649Z,48.89
2023-03-29T12:36:48.697Z,48.73
2023-03-29T12:38:21.555Z,49.03
2023-03-29T12:39:43.039Z,48.75
2023-03-29T12:41:15.506Z,48.75
2023-03-29T12:42:59.003Z,48.26
2023-03-29T12:44:23.685Z,48.42
2023-03-29T12:45:38.749Z,48.73
2023-03-29T12:46:41.252Z,48.08
2023-03-29T12:47:46.172Z,48.01
2023-03-29T12:48:53.203Z,47.94
2023-03-29T12:49:58.275Z,47.57
2023-03-29T12:51:03.667Z,47.50
2023-03-29T12:52:32.479Z,47.69
2023-03-29T12:53:42.351Z,47.38
2023-03-29T12:54:55.889Z,47.24
2023-03-29T12:56:01.298Z,46.82
2023-03-29T12:57:28.587Z,46.19
2023-03-29T12:58:36.888Z,46.24
2023-03-29T12:59:43.977Z,46.08
2023-03-29T13:00:48.034Z,45.99
2023-03-29T13:02:04.550Z,46.09
2023-03-29T13:03:35.813Z,46.21
2023-03-29T13:04:55.068Z,46.38
2023-03-29T13:06:05.424Z,46.66
2023-03-29T13:07:33.365Z,46.64
2023-03-29T13:11:28.273Z,46.63
2023-03-29T13:12:40.493Z,47.38
2023-03-29T13:13:44.039Z,47.68
2023-03-29T13:15:16.826Z,47.74
2023-03-29T13:16:30.150Z,47.58
2023-03-29T13:18:12.290Z,47.60
2023-03-29T13:19:14.746Z,47.41
2023-03-29T13:20:47.299Z,47.37
2023-03-29T13:21:49.395Z,47.85
2023-03-29T13:23:07.331Z,47.62
2023-03-29T13:24:57.529Z,47.69
2023-03-29T13:26:22.167Z,47.61
2023-03-29T13:27:31.666Z,47.46
2023-03-29T13:28:37.208Z,47.65
2023-03-29T13:29:56.572Z,47.87
2023-03-29T13:31:11.490Z,47.62
2023-03-29T13:32:46.519Z,47.88
2023-03-29T13:34:01.357Z,47.56
2023-03-29T13:35:33.836Z,47.20
2023-03-29T13:36:48.117Z,46.75
2023-03-29T13:37:59.502Z,46.43
2023-03-29T13:39:05.653Z,47.27
2023-03-29T13:40:34.445Z,47.91
2023-03-29T13:41:39.219Z,47.91
2023-03-29T13:42:42.208Z,47.82
2023-03-29T13:43:44.813Z,47.21
2023-03-29T13:44:49.178Z,47.29
2023-03-29T13:45:57.644Z,46.81
2023-03-29T13:47:25.700Z,46.95
2023-03-29T13:48:30.752Z,46.38
2023-03-29T13:49:35.755Z,46.14
2023-03-29T13:50:51.550Z,46.53
2023-03-29T13:51:53.707Z,46.27
2023-03-29T13:53:03.991Z,45.98
2023-03-29T13:54:38.509Z,45.63
2023-03-29T13:55:59.581Z,46.25
2023-03-29T13:57:07.711Z,46.47
2023-03-29T13:58:16.016Z,46.30
2023-03-29T13:59:27.034Z,46.31
2023-03-29T14:01:00.353Z,46.56
2023-03-29T14:02:04.474Z,46.47
2023-03-29T14:03:14.896Z,46.45
2023-03-29T14:04:24.229Z,46.70
2023-03-29T14:05:34.115Z,46.99
2023-03-29T14:06:38.321Z,47.09
2023-03-29T14:07:50.188Z,46.96
2023-03-29T14:08:54.084Z,46.79
2023-03-29T14:09:58.942Z,46.31
2023-03-29T14:11:03.182Z,46.57
2023-03-29T14:12:07.973Z,46.45
2023-03-29T14:13:15.135Z,46.36
2023-03-29T14:14:23.940Z,46.23
2023-03-29T14:15:42.674Z,46.19
2023-03-29T14:16:45.051Z,46.46
2023-03-29T14:17:48.203Z,46.12
2023-03-29T14:18:52.567Z,46.38
2023-03-29T14:19:58.496Z,46.35
2023-03-29T14:21:01.683Z,46.63
2023-03-29T14:22:09.900Z,47.15
2023-03-29T14:23:19.589Z,47.82
2023-03-29T14:24:27.079Z,48.28
2023-03-29T14:25:29.736Z,48.03
2023-03-29T14:26:36.008Z,47.72
2023-03-29T14:27:38.383Z,47.27
2023-03-29T14:29:01.339Z,46.84
2023-03-29T14:30:21.815Z,46.92
2023-03-29T14:31:30.760Z,47.42
2023-03-29T14:32:33.069Z,47.31
2023-03-29T14:33:37.295Z,47.53
2023-03-29T14:34:40.184Z,47.55
2023-03-29T14:35:42.751Z,47.86
2023-03-29T14:36:48.966Z,47.92
2023-03-29T14:37:52.664Z,48.28
2023-03-29T14:39:02.941Z,48.28
2023-03-29T14:40:12.067Z,48.51
2023-03-29T14:41:14.759Z,48.29
2023-03-29T14:42:21.530Z,47.91
2023-03-29T14:43:27.363Z,47.58
2023-03-29T14:44:33.414Z,47.76
2023-03-29T14:45:36.685Z,47.76
2023-03-29T14:46:39.430Z,47.84
2023-03-29T14:47:44.896Z,47.86
2023-03-29T14:48:50.711Z,48.20
2023-03-29T14:49:56.101Z,48.51
2023-03-29T14:50:59.540Z,48.31
2023-03-29T14:52:02.277Z,48.65
2023-03-29T14:53:06.228Z,49.12
2023-03-29T14:54:16.930Z,49.04
2023-03-29T14:55:23.571Z,49.44
2023-03-29T14:56:32.535Z,49.50
2023-03-29T14:57:36.794Z,49.21
2023-03-29T14:58:40.200Z,49.28
2023-03-29T14:59:43.384Z,49.39
2023-03-29T15:00:50.063Z,49.64
2023-03-29T15:01:53.052Z,49.60
2023-03-29T15:03:02.031Z,49.71
2023-03-29T15:04:07.354Z,50.04
2023-03-29T15:05:25.574Z,50.36
2023-03-29T15:06:29.720Z,50.50
2023-03-29T15:07:37.211Z,50.26
2023-03-29T15:08:50.830Z,50.37
2023-03-29T15:10:01.314Z,50.29
2023-03-29T15:11:26.566Z,50.06